Acadiana Regional Airport New Iberia US
ICAO: KARA
IATA: ARA
Category: Medium
Scheduled Services: No

Elevation: 24 ft
TransAlt. 18000 ft.

Airport Communications:
LAFAYETTE APP/DEP:121.1
CLNC DEL:121.7
CTAF:125
GND:121.7
TWR:125
UNICOM:122.95

KARA Zoom In..

Runways:

(A) RW 16 length 8002 ft width 200 ft
---- / hdg 165

(B) RW 34 length 8002 ft width 200 ft
ILS 108.90 / hdg 345

Location; KARA
Day. 25 / Time. 00.53 Zulu
* Altimeter: 30.00
* Temperature: 22° c. 71.6°f.
* Wind from: 140° Speed 15 kn with Gusts up to 23 kn.
Dewpoint: 19° c.
Visibility: 10 Statute Miles.
Clouds: Broken 3800 ft.
Clouds: Broken 4600 ft.
Clouds: Overcast 5500 ft.

KARA 250053Z 14015G23KT 10SM BKN038 BKN046 OVC055 22/19 A3000 RMK AO2 SLP158 T02170189

Going to: --> -->


Wind From 140°
Speed 15 kn.

 
 
jpsmedia worldairports.se 2020   terms of use